Time;durP1;ratioP1;P1;durP2;ratioP2;P2;SDS_P1;SDS_P2;PMS_P1;PMS_P2;Temp;Humidity;BMP_temperature;BMP_pressure;BME280_temperature;BME280_humidity;BME280_pressure;Samples;Min_cycle;Max_cycle;Signal;HPM_P1;HPM_P2
2022/12/24 00:01:36;;;;;;;26.50;5.67;;;13.10;99.90;;;;;;5052038;28;20406;-32
2022/12/24 00:04:07;;;;;;;20.97;4.63;;;13.10;99.90;;;;;;5065852;28;20427;-33
2022/12/24 00:06:37;;;;;;;22.30;5.57;;;13.10;99.90;;;;;;5065477;28;20246;-32
2022/12/24 00:09:08;;;;;;;27.47;4.67;;;13.00;99.90;;;;;;5066178;28;20535;-32
2022/12/24 00:11:35;;;;;;;26.23;4.63;;;13.00;99.90;;;;;;5064615;28;20310;-32
2022/12/24 00:14:02;;;;;;;27.00;5.70;;;13.00;99.90;;;;;;5063715;28;20765;-32
2022/12/24 00:16:29;;;;;;;25.80;5.30;;;13.10;99.90;;;;;;5065465;28;20293;-32
2022/12/24 00:18:59;;;;;;;24.80;5.37;;;13.10;99.90;;;;;;5063411;28;20251;-32
2022/12/24 00:21:26;;;;;;;29.60;5.60;;;13.10;99.90;;;;;;5063170;28;20239;-32
2022/12/24 00:23:56;;;;;;;19.57;5.03;;;13.10;99.90;;;;;;5052508;28;20564;-32
2022/12/24 00:26:23;;;;;;;18.00;4.27;;;13.10;99.90;;;;;;5064365;28;20206;-32
2022/12/24 00:28:50;;;;;;;20.47;4.20;;;13.00;99.90;;;;;;5060898;28;20615;-32
2022/12/24 00:31:20;;;;;;;26.70;4.73;;;13.00;99.90;;;;;;5053753;28;20374;-32
2022/12/24 00:33:50;;;;;;;26.70;5.43;;;13.00;99.90;;;;;;5045342;28;20674;-32
2022/12/24 00:36:20;;;;;;;22.37;4.77;;;13.00;99.90;;;;;;5044628;28;20307;-32
2022/12/24 00:38:51;;;;;;;32.00;5.67;;;13.00;99.90;;;;;;5043864;28;20221;-32
2022/12/24 00:41:27;;;;;;;19.87;4.53;;;13.00;99.90;;;;;;5048392;28;20192;-32
2022/12/24 00:44:04;;;;;;;23.77;4.60;;;13.00;99.90;;;;;;5045208;28;20219;-32
2022/12/24 00:46:33;;;;;;;24.67;5.10;;;13.00;99.90;;;;;;5058216;28;20215;-32
2022/12/24 00:49:01;;;;;;;20.93;4.53;;;12.90;99.90;;;;;;5045216;28;20591;-32
2022/12/24 00:51:33;;;;;;;26.53;5.40;;;13.00;99.90;;;;;;5057896;28;20334;-32
2022/12/24 00:54:01;;;;;;;31.43;5.50;;;12.90;99.90;;;;;;5050433;28;20265;-32
2022/12/24 00:56:29;;;;;;;21.07;4.93;;;13.00;99.90;;;;;;5058649;28;20604;-32
2022/12/24 00:58:56;;;;;;;19.87;4.67;;;13.00;99.90;;;;;;5063000;28;20224;-32
2022/12/24 01:01:26;;;;;;;22.73;4.60;;;13.00;99.90;;;;;;5061683;28;20208;-32
2022/12/24 01:05:09;;;;;;;22.07;4.87;;;13.00;99.90;;;;;;5058061;28;20203;-33
2022/12/24 01:06:46;;;;;;;24.20;5.60;;;12.90;99.90;;;;;;5061606;28;20222;-32
2022/12/24 01:09:13;;;;;;;22.47;4.97;;;13.00;99.90;;;;;;5053642;28;20296;-32
2022/12/24 01:11:41;;;;;;;23.13;4.77;;;13.00;99.90;;;;;;5048411;28;20296;-32
2022/12/24 01:14:08;;;;;;;24.67;4.87;;;13.00;99.90;;;;;;5048675;28;20231;-32
2022/12/24 01:16:37;;;;;;;17.13;4.13;;;13.00;99.90;;;;;;5054913;28;20198;-32
2022/12/24 01:19:05;;;;;;;22.40;4.63;;;13.00;99.90;;;;;;5063557;28;20725;-32
2022/12/24 01:21:34;;;;;;;17.77;3.70;;;13.00;99.90;;;;;;5052010;28;20303;-32
2022/12/24 01:24:04;;;;;;;18.40;3.93;;;13.00;99.90;;;;;;5062039;28;20299;-34
2022/12/24 01:26:34;;;;;;;25.90;5.10;;;13.00;99.90;;;;;;5062339;28;20663;-35
2022/12/24 01:29:04;;;;;;;23.23;5.00;;;13.00;99.90;;;;;;5067597;28;20208;-34
2022/12/24 01:31:31;;;;;;;21.63;4.73;;;13.00;99.90;;;;;;5055933;28;20247;-32
2022/12/24 01:34:00;;;;;;;21.27;4.77;;;13.00;99.90;;;;;;5050923;28;20199;-32
2022/12/24 01:36:30;;;;;;;22.07;4.57;;;13.00;99.90;;;;;;5063790;28;20277;-32
2022/12/24 01:38:59;;;;;;;26.90;4.27;;;13.00;99.90;;;;;;5052393;28;20222;-33
2022/12/24 01:44:38;;;;;;;14.60;3.13;;;13.00;99.90;;;;;;5051137;28;20749;-33
2022/12/24 01:47:17;;;;;;;14.57;3.40;;;13.00;99.90;;;;;;5065227;28;20219;-33
2022/12/24 01:49:55;;;;;;;14.13;3.23;;;13.00;99.90;;;;;;5053605;28;20248;-33
2022/12/24 01:52:29;;;;;;;14.00;3.17;;;13.00;99.90;;;;;;5049039;28;20294;-33
2022/12/24 01:55:07;;;;;;;11.47;2.33;;;13.00;99.90;;;;;;5050735;28;20278;-33
2022/12/24 01:57:59;;;;;;;12.73;3.17;;;13.00;99.90;;;;;;5058463;28;20219;-33
2022/12/24 02:00:28;;;;;;;11.60;2.83;;;13.00;99.90;;;;;;5056924;28;20219;-32
2022/12/24 02:02:56;;;;;;;11.90;2.37;;;13.00;99.90;;;;;;5058090;28;20227;-32
2022/12/24 02:05:39;;;;;;;7.47;2.40;;;13.00;99.90;;;;;;5063805;28;20268;-32
2022/12/24 02:08:09;;;;;;;8.67;2.10;;;13.00;99.90;;;;;;5053151;28;20199;-32
2022/12/24 02:10:37;;;;;;;10.70;2.87;;;13.00;99.90;;;;;;5058621;28;20647;-32
2022/12/24 02:13:07;;;;;;;10.83;2.57;;;13.00;99.90;;;;;;5056146;28;20216;-32
2022/12/24 02:15:59;;;;;;;13.73;3.00;;;13.00;99.90;;;;;;5055875;28;20302;-32
2022/12/24 02:18:45;;;;;;;11.33;2.77;;;13.00;99.90;;;;;;5066414;28;20740;-32
2022/12/24 02:21:54;;;;;;;13.20;3.23;;;13.00;99.90;;;;;;5061995;28;20317;-32
2022/12/24 02:24:30;;;;;;;16.67;3.33;;;13.00;99.90;;;;;;5035955;28;20702;-32
2022/12/24 02:27:28;;;;;;;15.53;3.40;;;12.90;99.90;;;;;;5063729;28;20238;-32
2022/12/24 02:29:55;;;;;;;19.57;4.40;;;12.80;99.90;;;;;;5051886;28;20232;-33
2022/12/24 02:33:00;;;;;;;16.80;4.43;;;12.80;99.90;;;;;;5047395;28;20235;-32
2022/12/24 02:35:57;;;;;;;20.40;5.30;;;12.80;99.90;;;;;;5042053;28;20214;-32
2022/12/24 02:38:37;;;;;;;24.17;4.47;;;12.80;99.90;;;;;;5062741;28;20322;-32
2022/12/24 02:41:22;;;;;;;16.07;3.60;;;12.80;99.90;;;;;;5057348;28;20208;-32
2022/12/24 02:43:52;;;;;;;17.40;4.13;;;12.80;99.90;;;;;;5060803;28;20241;-32
2022/12/24 02:46:23;;;;;;;18.03;3.87;;;12.80;99.90;;;;;;5066086;28;20210;-32
2022/12/24 02:48:50;;;;;;;23.77;4.53;;;12.80;99.90;;;;;;5065048;28;20239;-32
2022/12/24 02:51:22;;;;;;;21.60;5.00;;;12.80;99.90;;;;;;5056353;28;20272;-32
2022/12/24 02:53:52;;;;;;;19.23;4.00;;;12.80;99.90;;;;;;5054308;28;20243;-32
2022/12/24 02:56:41;;;;;;;19.07;4.57;;;12.80;99.90;;;;;;5064169;28;20229;-32
2022/12/24 02:59:40;;;;;;;19.43;4.13;;;12.80;99.90;;;;;;5058226;28;20256;-32
2022/12/24 03:02:35;;;;;;;17.57;3.77;;;12.80;99.90;;;;;;5058426;28;20223;-32
2022/12/24 03:05:24;;;;;;;17.70;3.87;;;12.80;99.90;;;;;;5058863;28;20199;-32
2022/12/24 03:08:09;;;;;;;17.30;4.23;;;12.80;99.90;;;;;;5060061;28;20508;-32
2022/12/24 03:11:01;;;;;;;19.80;4.07;;;12.80;99.90;;;;;;5062985;28;21160;-32
2022/12/24 03:13:31;;;;;;;17.37;4.47;;;12.70;99.90;;;;;;5058855;28;20219;-32
2022/12/24 03:16:04;;;;;;;18.87;3.87;;;12.80;99.90;;;;;;5062930;28;20192;-32
2022/12/24 03:18:32;;;;;;;15.20;3.70;;;12.80;99.90;;;;;;5055134;28;20216;-32
2022/12/24 03:21:04;;;;;;;14.87;3.77;;;12.80;99.90;;;;;;5050871;28;20216;-32
2022/12/24 03:23:34;;;;;;;19.17;3.60;;;12.80;99.90;;;;;;5056814;28;20269;-32
2022/12/24 03:26:07;;;;;;;14.37;3.93;;;12.80;99.90;;;;;;5055411;28;20656;-32
2022/12/24 03:28:40;;;;;;;15.77;3.70;;;12.80;99.90;;;;;;5058023;28;20306;-32
2022/12/24 03:31:10;;;;;;;14.33;3.03;;;12.90;99.90;;;;;;5056849;28;20700;-32
2022/12/24 03:33:38;;;;;;;14.30;3.73;;;12.90;99.90;;;;;;5025624;28;20216;-32
2022/12/24 03:36:07;;;;;;;15.80;3.57;;;12.90;99.90;;;;;;5045668;28;20509;-32
2022/12/24 03:38:37;;;;;;;18.40;4.10;;;12.90;99.90;;;;;;5048445;28;20236;-32
2022/12/24 03:41:06;;;;;;;17.13;3.70;;;12.90;99.90;;;;;;5044722;28;20208;-32
2022/12/24 03:43:37;;;;;;;17.93;4.00;;;12.90;99.90;;;;;;5056271;28;20195;-32
2022/12/24 03:46:08;;;;;;;11.73;3.50;;;12.90;99.90;;;;;;5051106;28;20702;-32
2022/12/24 03:48:42;;;;;;;15.87;3.60;;;12.90;99.90;;;;;;5047620;28;20231;-32
2022/12/24 03:51:20;;;;;;;15.50;3.40;;;12.90;99.90;;;;;;5054248;28;20234;-33
2022/12/24 03:53:48;;;;;;;19.77;4.27;;;12.80;99.90;;;;;;5058763;28;20716;-32
2022/12/24 03:56:15;;;;;;;16.73;3.90;;;12.80;99.90;;;;;;5058615;28;20211;-33
2022/12/24 03:58:42;;;;;;;18.53;4.20;;;12.80;99.90;;;;;;5052080;28;20890;-32
2022/12/24 04:01:09;;;;;;;18.50;4.37;;;12.70;99.90;;;;;;5057260;28;20197;-33
2022/12/24 04:03:37;;;;;;;21.53;5.13;;;12.70;99.90;;;;;;5052113;28;20274;-33
2022/12/24 04:06:10;;;;;;;21.23;5.30;;;12.70;99.90;;;;;;5043393;28;20200;-32
2022/12/24 04:08:40;;;;;;;20.57;4.40;;;12.70;99.90;;;;;;5050071;28;20206;-32
2022/12/24 04:11:14;;;;;;;22.83;5.70;;;12.70;99.90;;;;;;5044892;28;20565;-32
2022/12/24 04:13:42;;;;;;;19.27;4.30;;;12.70;99.90;;;;;;5058785;28;20645;-32
2022/12/24 04:16:12;;;;;;;21.63;4.43;;;12.60;99.90;;;;;;5061635;28;20665;-32
2022/12/24 04:18:42;;;;;;;23.17;5.13;;;12.60;99.90;;;;;;5062392;28;20705;-33
2022/12/24 04:21:12;;;;;;;25.70;5.60;;;12.60;99.90;;;;;;5064810;28;20195;-32
2022/12/24 04:23:43;;;;;;;20.57;4.93;;;12.60;99.90;;;;;;5060613;28;20209;-32
2022/12/24 04:26:13;;;;;;;20.93;4.30;;;12.60;99.90;;;;;;5044405;28;20204;-33
2022/12/24 04:28:41;;;;;;;23.30;5.67;;;12.60;99.90;;;;;;5054247;28;20196;-32
2022/12/24 04:31:15;;;;;;;21.13;5.10;;;12.60;99.90;;;;;;5063747;28;20207;-32
2022/12/24 04:33:45;;;;;;;20.07;4.10;;;12.60;99.90;;;;;;5057731;28;20227;-32
2022/12/24 04:36:18;;;;;;;21.30;4.93;;;12.60;99.90;;;;;;5044834;28;20220;-32
2022/12/24 04:38:47;;;;;;;23.87;4.80;;;12.60;99.90;;;;;;5065456;28;20681;-33
2022/12/24 04:41:19;;;;;;;19.93;5.07;;;12.60;99.90;;;;;;5062475;28;20210;-32
2022/12/24 04:43:55;;;;;;;23.87;4.87;;;12.60;99.90;;;;;;5057509;28;20216;-33
2022/12/24 04:46:30;;;;;;;22.70;4.63;;;12.70;99.90;;;;;;5059529;28;20218;-32
2022/12/24 04:49:00;;;;;;;27.03;5.17;;;12.70;99.90;;;;;;5069208;28;20280;-32
2022/12/24 04:51:28;;;;;;;18.37;4.77;;;12.70;99.90;;;;;;5067602;28;20262;-32
2022/12/24 04:53:56;;;;;;;21.60;4.80;;;12.70;99.90;;;;;;5060136;28;20318;-32
2022/12/24 04:56:25;;;;;;;26.40;5.00;;;12.70;99.90;;;;;;5053957;28;20204;-32
2022/12/24 04:58:53;;;;;;;20.43;4.47;;;12.70;99.90;;;;;;5058421;28;20219;-32
2022/12/24 05:01:26;;;;;;;24.27;4.73;;;12.70;99.90;;;;;;5061903;28;20195;-33
2022/12/24 05:03:54;;;;;;;20.27;4.40;;;12.70;99.90;;;;;;5061476;28;20711;-32
2022/12/24 05:06:26;;;;;;;23.33;4.67;;;12.70;99.90;;;;;;5065926;28;20715;-32
2022/12/24 05:08:54;;;;;;;20.33;4.83;;;12.70;99.90;;;;;;5065735;28;20206;-32
2022/12/24 05:11:22;;;;;;;19.17;5.00;;;12.70;99.90;;;;;;5059690;28;21020;-32
2022/12/24 05:13:50;;;;;;;17.20;4.17;;;12.70;99.90;;;;;;5064307;28;20302;-32
2022/12/24 05:16:19;;;;;;;27.57;5.20;;;12.70;99.90;;;;;;5065697;28;20208;-32
2022/12/24 05:18:46;;;;;;;23.10;5.17;;;12.70;99.90;;;;;;5062305;28;20321;-32
2022/12/24 05:21:16;;;;;;;25.23;5.47;;;12.80;99.90;;;;;;5049759;28;20216;-32
2022/12/24 05:26:47;;;;;;;21.23;5.37;;;12.70;99.90;;;;;;5053095;28;20232;-30
2022/12/24 05:29:15;;;;;;;25.73;4.53;;;12.70;99.90;;;;;;5056767;28;20288;-30
2022/12/24 05:31:47;;;;;;;22.30;4.67;;;12.70;99.90;;;;;;5058325;28;20200;-30
2022/12/24 05:34:15;;;;;;;25.03;5.67;;;12.70;99.90;;;;;;5048486;28;20208;-30
2022/12/24 05:36:45;;;;;;;20.13;4.30;;;12.70;99.90;;;;;;5055608;28;20227;-30
2022/12/24 05:39:16;;;;;;;27.70;5.77;;;12.70;99.90;;;;;;5057735;28;20300;-30
2022/12/24 05:41:44;;;;;;;26.07;6.17;;;12.70;99.90;;;;;;5051827;28;20207;-30
2022/12/24 05:44:11;;;;;;;24.77;5.17;;;12.60;99.90;;;;;;5055603;28;20326;-30
2022/12/24 05:46:41;;;;;;;27.80;5.33;;;12.60;99.90;;;;;;5064950;28;20234;-30
2022/12/24 05:49:12;;;;;;;24.97;4.93;;;12.60;99.90;;;;;;5059862;28;20212;-30
2022/12/24 05:51:40;;;;;;;19.70;5.00;;;12.60;99.90;;;;;;5063788;28;20203;-30
2022/12/24 05:54:11;;;;;;;24.00;4.60;;;12.60;99.90;;;;;;5059790;28;20213;-30
2022/12/24 05:56:40;;;;;;;21.83;5.40;;;12.60;99.90;;;;;;5061484;28;20224;-30
2022/12/24 05:59:10;;;;;;;25.37;5.20;;;12.60;99.90;;;;;;5050293;28;20335;-30
2022/12/24 06:01:37;;;;;;;26.40;5.60;;;12.60;99.90;;;;;;5046172;28;20601;-30
2022/12/24 06:04:04;;;;;;;26.57;4.83;;;12.50;99.90;;;;;;5049783;28;20243;-30
2022/12/24 06:06:34;;;;;;;17.70;4.77;;;12.50;99.90;;;;;;5054508;28;20291;-30
2022/12/24 06:09:01;;;;;;;23.70;5.50;;;12.50;99.90;;;;;;5054506;28;20311;-30
2022/12/24 06:11:32;;;;;;;23.13;4.60;;;12.50;99.90;;;;;;5053186;28;20784;-30
2022/12/24 06:14:04;;;;;;;20.80;5.40;;;12.60;99.90;;;;;;5060570;28;20230;-30
2022/12/24 06:16:33;;;;;;;24.63;5.67;;;12.50;99.90;;;;;;5054339;28;20307;-30
2022/12/24 06:19:03;;;;;;;23.57;5.13;;;12.50;99.90;;;;;;5055855;28;20229;-30
2022/12/24 06:21:32;;;;;;;23.23;5.53;;;12.60;99.90;;;;;;5063839;28;20738;-30
2022/12/24 06:23:59;;;;;;;22.97;5.03;;;12.60;99.90;;;;;;5064443;28;20203;-30
2022/12/24 06:26:27;;;;;;;31.67;6.40;;;12.60;99.90;;;;;;5066303;28;21069;-30
2022/12/24 06:28:56;;;;;;;33.77;5.47;;;12.60;99.90;;;;;;5061593;28;20215;-30
2022/12/24 06:31:25;;;;;;;22.33;5.40;;;12.60;99.90;;;;;;5060276;28;20242;-30
2022/12/24 06:33:53;;;;;;;26.70;5.43;;;12.60;99.90;;;;;;5051251;28;20203;-30
2022/12/24 06:36:25;;;;;;;22.13;5.67;;;12.70;99.90;;;;;;5058278;28;20260;-30
2022/12/24 06:38:54;;;;;;;25.07;5.00;;;12.60;99.90;;;;;;5064258;28;20298;-30
2022/12/24 06:41:22;;;;;;;27.90;5.57;;;12.60;99.90;;;;;;5044882;28;20204;-30
2022/12/24 06:43:53;;;;;;;30.37;5.33;;;12.70;99.90;;;;;;5061676;28;20195;-30
2022/12/24 06:46:22;;;;;;;28.80;5.60;;;12.70;99.90;;;;;;5050392;28;20658;-30
2022/12/24 06:48:50;;;;;;;25.20;5.13;;;12.70;99.90;;;;;;5051381;28;20208;-30
2022/12/24 06:51:20;;;;;;;25.47;5.70;;;12.70;99.90;;;;;;5055288;28;20269;-30
2022/12/24 06:53:51;;;;;;;26.47;5.43;;;12.60;99.90;;;;;;5057430;28;20285;-30
2022/12/24 06:56:20;;;;;;;28.53;5.30;;;12.60;99.90;;;;;;5051133;28;20230;-30
2022/12/24 06:58:50;;;;;;;22.60;5.00;;;12.60;99.90;;;;;;5063640;28;20207;-30
2022/12/24 07:01:23;;;;;;;28.47;4.87;;;12.60;99.90;;;;;;5056437;28;20261;-30
2022/12/24 07:03:50;;;;;;;31.47;5.97;;;12.60;99.90;;;;;;5065449;28;20211;-30
2022/12/24 07:06:26;;;;;;;26.37;5.47;;;12.60;99.90;;;;;;5059726;28;20208;-30
2022/12/24 07:08:54;;;;;;;22.83;5.60;;;12.60;99.90;;;;;;5066082;28;20291;-30
2022/12/24 07:11:24;;;;;;;24.90;5.63;;;12.60;99.90;;;;;;5053258;28;20212;-30
2022/12/24 07:13:52;;;;;;;22.40;5.10;;;12.60;99.90;;;;;;5046442;28;20512;-30
2022/12/24 07:16:20;;;;;;;28.57;5.73;;;12.60;99.90;;;;;;5051123;28;20284;-30
2022/12/24 07:18:47;;;;;;;24.93;4.80;;;12.60;99.90;;;;;;5062082;28;20299;-30
2022/12/24 07:21:17;;;;;;;37.97;5.73;;;12.60;99.90;;;;;;5055874;28;20216;-31
2022/12/24 07:23:45;;;;;;;23.53;5.17;;;12.60;99.90;;;;;;5052428;28;20581;-32
2022/12/24 07:26:14;;;;;;;22.43;4.57;;;12.60;99.90;;;;;;5056714;28;20199;-32
2022/12/24 07:28:44;;;;;;;23.23;5.57;;;12.60;99.90;;;;;;5066274;28;20191;-32
2022/12/24 07:31:14;;;;;;;25.37;5.33;;;12.60;99.90;;;;;;5060828;28;20207;-32
2022/12/24 07:33:43;;;;;;;24.33;4.77;;;12.60;99.90;;;;;;5055033;28;20281;-32
2022/12/24 07:36:21;;;;;;;34.50;6.10;;;12.60;99.90;;;;;;5056862;28;20212;-30
2022/12/24 07:38:48;;;;;;;28.07;6.70;;;12.60;99.90;;;;;;5048026;28;20207;-29
2022/12/24 07:41:15;;;;;;;24.03;5.33;;;12.60;99.90;;;;;;5056705;28;20235;-30
2022/12/24 07:43:47;;;;;;;26.47;5.87;;;12.60;99.90;;;;;;5063633;28;20235;-30
2022/12/24 07:46:15;;;;;;;20.43;5.30;;;12.50;99.90;;;;;;5060243;28;20679;-30
2022/12/24 07:48:44;;;;;;;26.30;5.47;;;12.50;99.90;;;;;;5051742;28;20200;-30
2022/12/24 07:51:11;;;;;;;23.17;5.10;;;12.60;99.90;;;;;;5060515;28;20259;-30
2022/12/24 07:53:39;;;;;;;16.50;4.40;;;12.60;99.90;;;;;;5063468;28;20226;-30
2022/12/24 07:56:06;;;;;;;25.80;5.27;;;12.60;99.90;;;;;;5059957;28;20210;-30
2022/12/24 07:58:39;;;;;;;22.47;4.67;;;12.60;99.90;;;;;;5054173;28;20570;-30
2022/12/24 08:01:06;;;;;;;20.17;4.90;;;12.60;99.90;;;;;;5056435;28;20700;-30
2022/12/24 08:03:36;;;;;;;24.43;5.53;;;12.60;99.90;;;;;;5061734;28;20204;-30
2022/12/24 08:06:03;;;;;;;22.87;6.13;;;12.60;99.90;;;;;;5049008;28;20220;-30
2022/12/24 08:08:30;;;;;;;23.53;5.07;;;12.60;99.90;;;;;;5057182;28;20911;-30
2022/12/24 08:11:05;;;;;;;20.53;4.70;;;12.50;99.90;;;;;;5053972;28;20302;-30
2022/12/24 08:13:35;;;;;;;22.03;5.30;;;12.60;99.90;;;;;;5052216;28;20223;-30
2022/12/24 08:16:03;;;;;;;20.57;4.80;;;12.60;99.90;;;;;;5057142;28;20231;-31
2022/12/24 08:18:32;;;;;;;36.40;5.77;;;12.60;99.90;;;;;;5063767;28;20896;-32
2022/12/24 08:21:02;;;;;;;30.17;5.70;;;12.50;99.90;;;;;;5050734;28;20871;-32
2022/12/24 08:23:29;;;;;;;20.47;6.10;;;12.60;99.90;;;;;;5056377;28;20211;-32
2022/12/24 08:25:56;;;;;;;27.17;5.50;;;12.60;99.90;;;;;;5059862;28;20622;-32
2022/12/24 08:28:26;;;;;;;25.97;5.37;;;12.60;99.90;;;;;;5044799;28;20295;-32
2022/12/24 08:30:53;;;;;;;28.80;5.27;;;12.60;99.90;;;;;;5045323;28;20217;-30
2022/12/24 08:33:21;;;;;;;25.90;5.70;;;12.60;99.90;;;;;;5061023;28;20325;-30
2022/12/24 08:35:50;;;;;;;17.87;5.30;;;12.60;99.90;;;;;;5061498;28;20618;-30
2022/12/24 08:38:17;;;;;;;21.57;4.90;;;12.60;99.90;;;;;;5064113;28;20310;-30
2022/12/24 08:40:49;;;;;;;25.07;5.90;;;12.60;99.90;;;;;;5045311;28;20329;-30
2022/12/24 08:43:20;;;;;;;26.30;5.93;;;12.60;99.90;;;;;;5044073;28;20679;-30
2022/12/24 08:45:50;;;;;;;24.07;5.27;;;12.60;99.90;;;;;;5045550;28;20556;-32
2022/12/24 08:48:18;;;;;;;25.77;5.47;;;12.70;99.90;;;;;;5052201;28;20221;-32
2022/12/24 08:50:45;;;;;;;33.27;6.23;;;12.70;99.90;;;;;;5054680;28;20604;-32
2022/12/24 08:53:12;;;;;;;23.50;5.37;;;12.70;99.90;;;;;;5044660;28;20569;-32
2022/12/24 08:55:42;;;;;;;25.03;5.03;;;12.70;99.90;;;;;;5041833;28;20204;-30
2022/12/24 08:58:11;;;;;;;26.40;5.40;;;12.70;99.90;;;;;;5049848;28;20219;-30
2022/12/24 09:00:39;;;;;;;18.90;5.17;;;12.70;99.90;;;;;;5057785;28;20668;-30
2022/12/24 09:03:15;;;;;;;22.97;4.53;;;12.70;99.90;;;;;;5061231;28;20187;-30
2022/12/24 09:05:53;;;;;;;21.93;5.03;;;12.80;99.90;;;;;;5054338;28;20227;-30
2022/12/24 09:08:20;;;;;;;21.00;4.93;;;12.80;99.90;;;;;;5043703;28;20204;-30
2022/12/24 09:10:47;;;;;;;26.10;5.23;;;12.80;99.90;;;;;;5057386;28;20610;-30
2022/12/24 09:13:17;;;;;;;26.40;5.30;;;12.80;99.90;;;;;;5053858;28;20200;-30
2022/12/24 09:15:55;;;;;;;21.83;4.77;;;12.80;99.90;;;;;;5045743;28;20270;-30
2022/12/24 09:18:25;;;;;;;30.33;6.20;;;12.90;99.90;;;;;;5055158;28;20311;-30
2022/12/24 09:21:02;;;;;;;23.47;5.73;;;12.90;99.90;;;;;;5044232;28;20317;-30
2022/12/24 09:23:30;;;;;;;27.43;6.80;;;12.90;99.90;;;;;;5044331;28;20211;-30
2022/12/24 09:25:59;;;;;;;29.67;6.10;;;12.90;99.90;;;;;;5044239;28;20603;-30
2022/12/24 09:28:27;;;;;;;22.93;5.20;;;12.90;99.90;;;;;;5045827;28;20188;-32
2022/12/24 09:31:03;;;;;;;30.43;6.40;;;12.90;99.90;;;;;;5047959;28;20239;-33
2022/12/24 09:33:35;;;;;;;23.20;5.20;;;12.90;99.90;;;;;;5055178;28;20737;-30
2022/12/24 09:36:03;;;;;;;23.07;5.77;;;12.90;99.90;;;;;;5047759;28;20246;-30
2022/12/24 09:38:31;;;;;;;23.90;6.00;;;13.00;99.90;;;;;;5056127;28;20306;-30
2022/12/24 09:41:09;;;;;;;24.47;5.90;;;13.00;99.90;;;;;;5061188;28;20314;-29
2022/12/24 09:43:37;;;;;;;26.37;5.90;;;13.00;99.90;;;;;;5053726;28;20303;-30
2022/12/24 09:46:24;;;;;;;25.23;5.53;;;13.00;99.90;;;;;;5047354;28;20689;-30
2022/12/24 09:49:00;;;;;;;28.70;6.53;;;13.10;99.90;;;;;;5049405;28;20208;-30
2022/12/24 09:51:54;;;;;;;31.43;6.00;;;13.10;99.90;;;;;;5062417;28;20707;-30
2022/12/24 09:54:25;;;;;;;23.57;5.77;;;13.10;99.90;;;;;;5067241;28;20207;-30
2022/12/24 09:56:55;;;;;;;21.50;5.00;;;13.10;99.90;;;;;;5052376;28;20681;-30
2022/12/24 09:59:31;;;;;;;25.13;6.03;;;13.10;99.90;;;;;;5054034;28;20426;-30
2022/12/24 10:01:59;;;;;;;23.73;5.90;;;13.10;99.90;;;;;;5048117;28;20258;-30
2022/12/24 10:04:33;;;;;;;27.70;6.10;;;13.10;99.90;;;;;;5052111;28;20203;-30
2022/12/24 10:07:24;;;;;;;27.77;6.00;;;13.20;99.90;;;;;;5056488;28;20205;-30
2022/12/24 10:10:21;;;;;;;22.90;5.90;;;13.20;99.90;;;;;;5066251;28;20284;-30
2022/12/24 10:13:24;;;;;;;36.17;6.17;;;13.30;99.90;;;;;;5053852;28;20490;-30
2022/12/24 10:16:01;;;;;;;24.30;5.23;;;13.20;99.90;;;;;;5048143;28;20208;-30
2022/12/24 10:18:56;;;;;;;28.10;4.97;;;13.20;99.90;;;;;;5054423;28;20591;-30
2022/12/24 10:21:41;;;;;;;25.40;5.97;;;13.20;99.90;;;;;;5046683;28;20740;-30
2022/12/24 10:24:33;;;;;;;25.80;6.03;;;13.30;99.90;;;;;;5058629;28;20202;-30
2022/12/24 10:27:04;;;;;;;27.33;6.60;;;13.30;99.90;;;;;;5050724;28;20224;-30
2022/12/24 10:29:39;;;;;;;26.47;5.03;;;13.30;99.90;;;;;;5050553;28;20311;-30
2022/12/24 10:32:06;;;;;;;28.57;6.50;;;13.30;99.90;;;;;;5057591;28;20207;-31
2022/12/24 10:34:50;;;;;;;20.50;4.70;;;13.30;99.90;;;;;;5065961;28;20302;-30
2022/12/24 10:37:23;;;;;;;24.93;5.40;;;13.30;99.90;;;;;;5057912;28;20208;-30
2022/12/24 10:39:51;;;;;;;22.80;6.00;;;13.30;99.90;;;;;;5052738;28;20297;-30
2022/12/24 10:42:29;;;;;;;28.97;5.47;;;13.30;99.90;;;;;;5062144;28;20239;-30
2022/12/24 10:45:03;;;;;;;27.90;5.13;;;13.40;99.90;;;;;;5059546;28;20294;-30
2022/12/24 10:47:36;;;;;;;26.27;5.30;;;13.40;99.90;;;;;;5055609;28;20208;-30
2022/12/24 10:50:10;;;;;;;27.30;6.03;;;13.40;99.90;;;;;;5061367;28;20228;-30
2022/12/24 10:52:42;;;;;;;24.33;5.33;;;13.40;99.90;;;;;;5064711;28;20196;-30
2022/12/24 10:55:22;;;;;;;27.57;6.40;;;13.50;99.90;;;;;;5050398;28;20232;-30
2022/12/24 10:58:04;;;;;;;26.53;5.47;;;13.50;99.90;;;;;;5055724;28;20243;-30
2022/12/24 11:00:33;;;;;;;25.63;5.57;;;13.40;99.90;;;;;;5051331;28;20224;-30
2022/12/24 11:03:10;;;;;;;19.23;4.50;;;13.40;99.90;;;;;;5063275;28;20191;-30
2022/12/24 11:05:39;;;;;;;20.70;4.93;;;13.50;99.90;;;;;;5048866;28;20235;-30
2022/12/24 11:08:19;;;;;;;22.37;5.20;;;13.50;99.90;;;;;;5061577;28;20601;-30
2022/12/24 11:11:18;;;;;;;17.53;4.97;;;13.50;99.90;;;;;;5062807;28;20600;-30
2022/12/24 11:13:57;;;;;;;28.00;5.43;;;13.60;99.90;;;;;;5043926;28;20208;-30
2022/12/24 11:16:28;;;;;;;17.67;4.60;;;13.60;99.90;;;;;;5064930;28;20203;-30
2022/12/24 11:18:58;;;;;;;28.87;5.93;;;13.60;99.90;;;;;;5061288;28;20313;-30
2022/12/24 11:21:31;;;;;;;20.50;5.07;;;13.60;99.90;;;;;;5056897;28;20635;-30
2022/12/24 11:24:06;;;;;;;23.73;5.13;;;13.60;99.90;;;;;;5057738;28;20203;-30
2022/12/24 11:26:34;;;;;;;26.97;6.10;;;13.70;99.90;;;;;;5059741;28;20304;-30
2022/12/24 11:29:27;;;;;;;21.30;5.53;;;13.70;99.90;;;;;;5063641;28;20208;-30
2022/12/24 11:32:17;;;;;;;30.10;5.87;;;13.70;99.90;;;;;;5059757;28;20608;-30
2022/12/24 11:34:47;;;;;;;23.53;6.13;;;13.70;99.90;;;;;;5063629;28;20207;-30
2022/12/24 11:37:23;;;;;;;28.30;6.00;;;13.70;99.90;;;;;;5065062;28;20251;-30
2022/12/24 11:39:59;;;;;;;27.07;5.67;;;13.80;99.90;;;;;;5058383;28;20218;-31
2022/12/24 11:42:34;;;;;;;26.10;5.97;;;13.80;99.90;;;;;;5059859;28;20295;-31
2022/12/24 11:45:05;;;;;;;26.07;5.70;;;13.80;99.90;;;;;;5059966;28;20195;-30
2022/12/24 11:47:33;;;;;;;21.33;4.97;;;13.80;99.90;;;;;;5047180;28;20221;-31
2022/12/24 11:50:30;;;;;;;22.60;5.70;;;13.80;99.90;;;;;;5045321;28;20262;-31
2022/12/24 11:53:03;;;;;;;31.80;5.60;;;13.90;99.90;;;;;;5045327;28;20220;-31
2022/12/24 11:55:54;;;;;;;26.53;5.70;;;13.90;99.90;;;;;;5056997;28;20247;-31
2022/12/24 11:58:43;;;;;;;23.57;5.37;;;13.90;99.90;;;;;;5050759;28;20196;-31
2022/12/24 12:01:25;;;;;;;25.90;5.67;;;13.90;99.90;;;;;;5058631;28;20326;-31
2022/12/24 12:04:12;;;;;;;32.07;5.57;;;14.00;99.90;;;;;;5060768;28;20754;-31
2022/12/24 12:07:10;;;;;;;29.73;5.97;;;13.90;99.90;;;;;;5046450;28;20216;-31
2022/12/24 12:10:01;;;;;;;22.17;5.30;;;13.90;99.90;;;;;;5057269;28;20221;-30
2022/12/24 12:12:41;;;;;;;16.93;4.67;;;13.90;99.90;;;;;;5055144;28;20673;-30
2022/12/24 12:15:16;;;;;;;23.73;5.70;;;13.90;99.90;;;;;;5049133;28;20264;-30
2022/12/24 12:18:00;;;;;;;20.77;5.00;;;13.90;99.90;;;;;;5059788;28;20265;-30
2022/12/24 12:20:51;;;;;;;25.23;5.23;;;14.00;99.90;;;;;;5063280;28;20645;-30
2022/12/24 12:23:29;;;;;;;24.97;5.20;;;14.00;99.90;;;;;;5045458;28;20202;-30
2022/12/24 12:26:00;;;;;;;25.37;5.90;;;14.00;99.90;;;;;;5043710;28;20555;-31
2022/12/24 12:28:53;;;;;;;20.43;5.33;;;14.00;99.90;;;;;;5054743;28;20289;-30
2022/12/24 12:31:30;;;;;;;24.43;5.90;;;14.00;99.90;;;;;;5049189;28;20315;-30
2022/12/24 12:34:21;;;;;;;24.17;5.50;;;14.00;99.90;;;;;;5052708;28;20235;-31
2022/12/24 12:37:05;;;;;;;23.17;5.07;;;14.00;99.90;;;;;;5060577;28;20268;-32
2022/12/24 12:39:41;;;;;;;20.33;4.70;;;14.10;99.90;;;;;;5063058;28;20211;-29
2022/12/24 12:42:24;;;;;;;22.70;4.83;;;14.10;99.90;;;;;;5047480;28;20683;-29
2022/12/24 12:45:22;;;;;;;32.83;5.63;;;14.10;99.90;;;;;;5043451;28;20635;-30
2022/12/24 12:48:04;;;;;;;23.17;5.40;;;14.10;99.90;;;;;;5044866;28;20267;-29
2022/12/24 12:50:39;;;;;;;21.07;5.10;;;14.10;99.90;;;;;;5054129;28;20263;-31
2022/12/24 12:53:40;;;;;;;22.43;5.10;;;14.10;99.90;;;;;;5044602;28;20295;-31
2022/12/24 12:56:34;;;;;;;23.43;5.63;;;14.10;99.90;;;;;;5046941;28;20690;-31
2022/12/24 12:59:27;;;;;;;17.93;5.10;;;14.10;99.90;;;;;;5055065;28;20214;-31
2022/12/24 13:02:16;;;;;;;21.90;4.67;;;14.10;99.90;;;;;;5059224;28;20236;-31
2022/12/24 13:04:46;;;;;;;22.80;5.33;;;14.10;99.90;;;;;;5050279;28;20220;-31
2022/12/24 13:07:50;;;;;;;20.93;4.33;;;14.10;99.90;;;;;;5066789;28;20692;-31
2022/12/24 13:10:25;;;;;;;19.97;4.77;;;14.10;99.90;;;;;;5057284;28;20219;-31
2022/12/24 13:13:14;;;;;;;21.33;5.10;;;14.10;99.90;;;;;;5065620;28;20305;-31
2022/12/24 13:16:29;;;;;;;20.47;5.23;;;14.20;99.90;;;;;;5067706;28;20680;-31